Terminal Aerodrome Forecast
Issued by NWS

Home | Current Version | Previous Version | Text Only | Print | Product List | Glossary On
Versions: 1 2 3 4 5 6 7 8 9 10 11 12 13 14 15 16 17 18 19
000
FTUS41 KPBZ 010500
TAFMGW
TAF
KMGW 010534Z 0106/0206 00000KT P6SM SCT100
     FM011400 VRB03KT P6SM FEW050
     FM011900 18004KT P6SM VCTS BKN050CB
     FM020200 15004KT P6SM BKN035=

USA.gov is the U.S. government's official web portal to all federal, state and local government web resources and services.